Thousand Palms, CA (92276)

8:17 AM PST on December 04, 2016 (GMT -0800)
DesertWeather com | | Change Station

Elev 275 ft 33.82 °N, 116.40 °W | Updated 8 seconds ago

Clear
Clear
55.0 °F
Feels Like 55.0 °F
N
0.2
Wind Variable Wind from NW
Gusts 1.2 mph

Today
High -- | Low -- °F
--% Chance of Precip.
Yesterday
High -- | Low -- °F
Precip. -- in
Pressure 30.11 in
Visibility 10.0 miles
Clouds Clear
Dew Point 23 °F
Humidity 29%
Rainfall 0.00 in
Snow Depth Not available.
6:35 AM 4:36 PM
Waxing Crescent, 23% visible
METAR KPSP 041553Z 35004KT 10SM CLR 12/M06 A3011 RMK AO2 SLP196 T01171061
Pressure 30.11 in
Visibility 10.0 miles
Clouds Clear
Dew Point 23 °F
Humidity 29%
Rainfall 0.00 in
Snow Depth Not available.
6:35 AM 4:36 PM
Waxing Crescent, 23% visible
METAR KPSP 041553Z 35004KT 10SM CLR 12/M06 A3011 RMK AO2 SLP196 T01171061

10-Day Weather Forecast

Almanac

Astronomy

Dec. 04, 2016 Rise Set
Actual Time
Civil Twilight
Nautical Twilight
Astronomical Twilight
Moon
Length of Visible Light
Length of Day
Tomorrow will be .
, % of the Moon is Illuminated

Today's Extremes

State Highs State Lows

Community

WunderPhotos

Upload Photos

1,955,616 photos uploaded!

WunderBlog® & News

Nearby

Air Quality

  Air Quality AQ Index Pollutant
Not available.

Snow Depth

Station Depth Elevation

Earthquake Activity

City Distance Mag. Time & Date
Minimum magnitude displayed is 2.5.

Coastal Water Temperatures

Place Temperature

Stations

Nearby Weather Stations

Station Location Temp. Windchill Dew Point Humidity Wind Precip. Elev Updated Type
                   

Watches & Warnings

There are currently no watches in effect.